Time;durP1;ratioP1;P1;durP2;ratioP2;P2;SDS_P1;SDS_P2;PMS_P1;PMS_P2;Temp;Humidity;BMP_temperature;BMP_pressure;BME280_temperature;BME280_humidity;BME280_pressure;Samples;Min_cycle;Max_cycle;Signal;HPM_P1;HPM_P2
2023/06/14 00:00:43;;;;;;;14.50;7.70;;;;;;;;;;10406552;28;20025;-88
2023/06/14 00:05:46;;;;;;;17.40;8.90;;;;;;;;;;10405647;28;20048;-88
2023/06/14 00:10:47;;;;;;;15.93;9.37;;;;;;;;;;10387825;28;20104;-88
2023/06/14 00:15:48;;;;;;;14.53;7.90;;;;;;;;;;10405094;28;20061;-89
2023/06/14 00:20:49;;;;;;;17.43;9.53;;;;;;;;;;10387739;28;20103;-88
2023/06/14 00:25:50;;;;;;;15.30;8.17;;;;;;;;;;10386901;28;20051;-87
2023/06/14 00:30:51;;;;;;;19.33;10.43;;;;;;;;;;10405458;28;20029;-88
2023/06/14 00:35:55;;;;;;;17.63;9.40;;;;;;;;;;10405740;28;20029;-88
2023/06/14 00:40:56;;;;;;;15.63;9.13;;;;;;;;;;10385946;28;20029;-88
2023/06/14 00:45:57;;;;;;;16.08;9.30;;;;;;;;;;10376396;28;20047;-88
2023/06/14 00:50:58;;;;;;;17.25;8.93;;;;;;;;;;10386642;28;20068;-88
2023/06/14 00:55:59;;;;;;;16.27;9.13;;;;;;;;;;10403954;28;20056;-89
2023/06/14 01:01:02;;;;;;;15.43;8.80;;;;;;;;;;10386282;28;20036;-87
2023/06/14 01:06:10;;;;;;;15.65;8.05;;;;;;;;;;10404020;28;20815;-88
2023/06/14 01:11:17;;;;;;;16.83;8.57;;;;;;;;;;10386071;28;20482;-88
2023/06/14 01:16:18;;;;;;;11.77;7.32;;;;;;;;;;10403642;28;20036;-88
2023/06/14 01:21:23;;;;;;;16.63;9.00;;;;;;;;;;10404551;28;20084;-87
2023/06/14 01:26:26;;;;;;;16.50;8.60;;;;;;;;;;10386120;28;20052;-88
2023/06/14 01:31:29;;;;;;;18.07;9.70;;;;;;;;;;10418344;28;20072;-88
2023/06/14 01:36:30;;;;;;;20.17;9.73;;;;;;;;;;10412469;28;20087;-87
2023/06/14 01:41:32;;;;;;;13.85;9.00;;;;;;;;;;10394424;28;20439;-86
2023/06/14 01:46:33;;;;;;;17.13;9.23;;;;;;;;;;10405249;28;20044;-88
2023/06/14 01:51:35;;;;;;;14.48;8.55;;;;;;;;;;10400737;28;20054;-87
2023/06/14 01:56:36;;;;;;;12.88;7.68;;;;;;;;;;10411296;28;20036;-86
2023/06/14 02:01:37;;;;;;;18.25;9.98;;;;;;;;;;10411405;28;20112;-88
2023/06/14 02:06:38;;;;;;;17.85;9.10;;;;;;;;;;10410859;28;20025;-88
2023/06/14 02:11:39;;;;;;;14.82;9.18;;;;;;;;;;10410215;28;20791;-88
2023/06/14 02:16:48;;;;;;;18.20;10.77;;;;;;;;;;10392094;28;20029;-87
2023/06/14 02:21:49;;;;;;;15.25;8.80;;;;;;;;;;10392013;28;20464;-87
2023/06/14 02:26:50;;;;;;;14.57;8.90;;;;;;;;;;10409806;28;20747;-86
2023/06/14 02:31:51;;;;;;;14.77;8.45;;;;;;;;;;10392303;28;20025;-87
2023/06/14 02:36:52;;;;;;;19.55;10.23;;;;;;;;;;10410450;28;20239;-86
2023/06/14 02:41:53;;;;;;;19.10;10.45;;;;;;;;;;10391501;28;20029;-88
2023/06/14 02:46:55;;;;;;;17.40;9.68;;;;;;;;;;10391225;28;20513;-87
2023/06/14 02:51:56;;;;;;;18.90;10.23;;;;;;;;;;10406069;28;20107;-87
2023/06/14 02:56:57;;;;;;;17.55;10.25;;;;;;;;;;10391351;28;20029;-87
2023/06/14 03:01:58;;;;;;;18.77;10.00;;;;;;;;;;10408508;28;20029;-88
2023/06/14 03:07:02;;;;;;;23.98;12.18;;;;;;;;;;10408817;28;20692;-88
2023/06/14 03:12:04;;;;;;;19.08;10.32;;;;;;;;;;10408660;28;20592;-87
2023/06/14 03:17:05;;;;;;;17.17;9.55;;;;;;;;;;10408126;28;20021;-88
2023/06/14 03:22:07;;;;;;;16.45;10.63;;;;;;;;;;10408072;28;20033;-87
2023/06/14 03:27:09;;;;;;;23.40;10.95;;;;;;;;;;10407567;28;20373;-84
2023/06/14 03:32:10;;;;;;;23.02;11.40;;;;;;;;;;10390203;28;20037;-87
2023/06/14 03:37:12;;;;;;;19.23;10.45;;;;;;;;;;10390078;28;20037;-89
2023/06/14 03:42:14;;;;;;;25.67;11.85;;;;;;;;;;10407108;28;20489;-87
2023/06/14 03:47:16;;;;;;;20.60;11.90;;;;;;;;;;10388827;28;20056;-87
2023/06/14 03:52:17;;;;;;;24.23;12.13;;;;;;;;;;10406103;28;20132;-85
2023/06/14 03:57:18;;;;;;;24.85;13.07;;;;;;;;;;10405965;28;20040;-87
2023/06/14 04:02:19;;;;;;;22.42;12.68;;;;;;;;;;10406418;28;20057;-87
2023/06/14 04:07:39;;;;;;;26.25;13.65;;;;;;;;;;10387630;28;20091;-86
2023/06/14 04:12:40;;;;;;;24.00;13.45;;;;;;;;;;10385564;28;20029;-84
2023/06/14 04:17:41;;;;;;;29.30;15.23;;;;;;;;;;10404825;28;20029;-82
2023/06/14 04:22:43;;;;;;;27.13;14.45;;;;;;;;;;10404869;28;20703;-83
2023/06/14 04:27:44;;;;;;;26.13;15.20;;;;;;;;;;10386998;28;20607;-84
2023/06/14 04:32:45;;;;;;;27.30;15.38;;;;;;;;;;10404292;28;20115;-84
2023/06/14 04:37:46;;;;;;;25.05;15.32;;;;;;;;;;10382204;28;20021;-83
2023/06/14 04:42:48;;;;;;;27.17;15.00;;;;;;;;;;10404077;28;20020;-84
2023/06/14 04:47:50;;;;;;;24.52;14.57;;;;;;;;;;10404782;28;20045;-83
2023/06/14 04:52:52;;;;;;;28.38;14.27;;;;;;;;;;10404472;28;20037;-83
2023/06/14 04:57:53;;;;;;;23.65;14.38;;;;;;;;;;10386929;28;20099;-82
2023/06/14 05:02:55;;;;;;;23.83;14.38;;;;;;;;;;10405018;28;20036;-84
2023/06/14 05:07:56;;;;;;;20.35;13.20;;;;;;;;;;10403296;28;20032;-84
2023/06/14 05:12:57;;;;;;;22.70;14.25;;;;;;;;;;10386275;28;20376;-84
2023/06/14 05:17:58;;;;;;;22.85;14.63;;;;;;;;;;10403819;28;20029;-85
2023/06/14 05:22:59;;;;;;;25.08;14.80;;;;;;;;;;10404293;28;20475;-83
2023/06/14 05:28:00;;;;;;;25.65;14.75;;;;;;;;;;10403768;28;20065;-82
2023/06/14 05:33:01;;;;;;;24.52;15.93;;;;;;;;;;10390224;28;20381;-83
2023/06/14 05:38:02;;;;;;;25.75;16.75;;;;;;;;;;10403880;28;20024;-83
2023/06/14 05:43:03;;;;;;;22.38;14.82;;;;;;;;;;10369253;28;20049;-85
2023/06/14 05:48:04;;;;;;;21.45;13.88;;;;;;;;;;10355950;28;20081;-84
2023/06/14 05:53:05;;;;;;;24.05;14.70;;;;;;;;;;10363288;28;20161;-87
2023/06/14 05:58:06;;;;;;;23.40;15.30;;;;;;;;;;10368382;28;20036;-86
2023/06/14 06:03:11;;;;;;;23.55;15.10;;;;;;;;;;10383622;28;20087;-86
2023/06/14 06:08:13;;;;;;;22.50;14.00;;;;;;;;;;10394070;28;20087;-85
2023/06/14 06:13:14;;;;;;;24.60;15.45;;;;;;;;;;10397645;28;20380;-88
2023/06/14 06:18:15;;;;;;;28.58;14.70;;;;;;;;;;10381147;28;20037;-86
2023/06/14 06:23:16;;;;;;;22.50;13.88;;;;;;;;;;10402769;28;20033;-87
2023/06/14 06:28:17;;;;;;;20.95;12.30;;;;;;;;;;10387448;28;20033;-86
2023/06/14 06:33:18;;;;;;;22.02;13.38;;;;;;;;;;10386008;28;20036;-85
2023/06/14 06:38:20;;;;;;;25.60;13.70;;;;;;;;;;10388075;28;20041;-86
2023/06/14 06:43:21;;;;;;;18.27;10.40;;;;;;;;;;10388426;28;20597;-87
2023/06/14 06:48:28;;;;;;;17.10;10.73;;;;;;;;;;10407982;28;20048;-87
2023/06/14 06:53:29;;;;;;;18.75;10.88;;;;;;;;;;10379261;28;20160;-85
2023/06/14 06:58:31;;;;;;;12.10;8.13;;;;;;;;;;10405333;28;20132;-86
2023/06/14 07:03:32;;;;;;;11.43;7.93;;;;;;;;;;10396868;28;20075;-86
2023/06/14 07:08:33;;;;;;;14.20;8.07;;;;;;;;;;10405030;28;20087;-85
2023/06/14 07:13:34;;;;;;;11.68;7.00;;;;;;;;;;10362649;28;20366;-87
2023/06/14 07:18:35;;;;;;;10.75;7.32;;;;;;;;;;10374014;28;20091;-86
2023/06/14 07:23:36;;;;;;;13.10;7.45;;;;;;;;;;10380445;28;20438;-88
2023/06/14 07:28:37;;;;;;;10.27;6.35;;;;;;;;;;10381154;28;20079;-87
2023/06/14 07:33:38;;;;;;;11.35;6.90;;;;;;;;;;10376552;28;20033;-87
2023/06/14 07:38:40;;;;;;;10.10;7.10;;;;;;;;;;10389200;28;20349;-88
2023/06/14 07:49:23;;;;;;;10.77;7.45;;;;;;;;;;10398131;28;20083;-87
2023/06/14 07:54:26;;;;;;;10.35;7.15;;;;;;;;;;10398227;28;20013;-89
2023/06/14 07:59:27;;;;;;;9.18;6.22;;;;;;;;;;10386786;28;20026;-87
2023/06/14 08:04:28;;;;;;;9.93;6.28;;;;;;;;;;10402357;28;20550;-87
2023/06/14 08:09:29;;;;;;;7.47;5.20;;;;;;;;;;10399271;28;20106;-88
2023/06/14 08:14:31;;;;;;;9.30;6.50;;;;;;;;;;10398772;28;20025;-89
2023/06/14 08:19:32;;;;;;;10.20;6.35;;;;;;;;;;10405521;28;20099;-88
2023/06/14 08:24:33;;;;;;;8.07;5.07;;;;;;;;;;10404003;28;20013;-88
2023/06/14 08:29:34;;;;;;;8.63;6.53;;;;;;;;;;10403832;28;20465;-88
2023/06/14 08:34:35;;;;;;;8.95;6.93;;;;;;;;;;10405741;28;20017;-88
2023/06/14 08:39:36;;;;;;;9.90;7.13;;;;;;;;;;10386214;28;20038;-86
2023/06/14 08:44:37;;;;;;;9.20;6.70;;;;;;;;;;10384114;28;20068;-89
2023/06/14 08:49:39;;;;;;;10.10;7.00;;;;;;;;;;10403231;28;20045;-88
2023/06/14 08:54:43;;;;;;;8.93;6.03;;;;;;;;;;10404130;28;20018;-88
2023/06/14 08:59:53;;;;;;;6.93;5.82;;;;;;;;;;10404172;28;20024;-89
2023/06/14 09:04:54;;;;;;;7.95;6.10;;;;;;;;;;10383751;28;20029;-87
2023/06/14 09:10:11;;;;;;;10.90;7.32;;;;;;;;;;10401064;28;20052;-87
2023/06/14 09:15:13;;;;;;;9.32;7.28;;;;;;;;;;10402091;28;20504;-87
2023/06/14 09:20:18;;;;;;;10.88;7.75;;;;;;;;;;10404323;28;20695;-87
2023/06/14 09:25:19;;;;;;;9.50;7.13;;;;;;;;;;10386380;28;20026;-88
2023/06/14 09:30:21;;;;;;;10.13;7.72;;;;;;;;;;10403645;28;20526;-87
2023/06/14 09:35:22;;;;;;;8.38;7.10;;;;;;;;;;10404047;28;20025;-89
2023/06/14 09:40:23;;;;;;;9.57;7.80;;;;;;;;;;10385684;28;20033;-88
2023/06/14 09:45:25;;;;;;;11.18;8.02;;;;;;;;;;10385784;28;20044;-88
2023/06/14 09:50:26;;;;;;;9.18;7.57;;;;;;;;;;10403966;28;20052;-90
2023/06/14 09:55:29;;;;;;;9.55;7.18;;;;;;;;;;10409515;28;20025;-88
2023/06/14 10:00:33;;;;;;;6.32;5.20;;;;;;;;;;10393154;28;20041;-89
2023/06/14 10:05:36;;;;;;;5.40;4.47;;;;;;;;;;10392806;28;20368;-87
2023/06/14 10:10:42;;;;;;;5.43;4.63;;;;;;;;;;10392866;28;20068;-87
2023/06/14 10:15:49;;;;;;;5.57;4.80;;;;;;;;;;10392862;28;20044;-88
2023/06/14 10:21:05;;;;;;;5.72;5.22;;;;;;;;;;10410155;28;20014;-87
2023/06/14 10:26:06;;;;;;;7.07;4.95;;;;;;;;;;10411201;28;20033;-87
2023/06/14 10:31:12;;;;;;;5.97;5.00;;;;;;;;;;10412286;28;20029;-88
2023/06/14 10:36:22;;;;;;;5.60;4.78;;;;;;;;;;10392385;28;20116;-87
2023/06/14 10:41:23;;;;;;;7.53;5.15;;;;;;;;;;10410014;28;20429;-88
2023/06/14 10:46:29;;;;;;;6.78;5.30;;;;;;;;;;10391650;28;20030;-86
2023/06/14 10:51:30;;;;;;;;;;;;;;;;;;10410527;28;20072;-85
2023/06/14 10:56:33;;;;;;;10.38;6.93;;;;;;;;;;10409002;28;19963;-87
2023/06/14 11:01:37;;;;;;;8.93;7.43;;;;;;;;;;10408323;28;20053;-87
2023/06/14 11:06:46;;;;;;;11.75;7.55;;;;;;;;;;10390940;28;20045;-88
2023/06/14 11:11:48;;;;;;;12.57;9.85;;;;;;;;;;10408819;28;20481;-88
2023/06/14 11:16:50;;;;;;;15.23;11.05;;;;;;;;;;10390977;28;20144;-90
2023/06/14 11:21:51;;;;;;;12.98;9.43;;;;;;;;;;10391060;28;20087;-87
2023/06/14 11:26:52;;;;;;;19.35;10.30;;;;;;;;;;10408215;28;20075;-88
2023/06/14 11:31:53;;;;;;;16.30;11.63;;;;;;;;;;10407876;28;20546;-88
2023/06/14 11:36:54;;;;;;;15.52;10.68;;;;;;;;;;10407918;28;20033;-88
2023/06/14 11:41:55;;;;;;;13.18;9.50;;;;;;;;;;10407973;28;20638;-88
2023/06/14 11:46:57;;;;;;;10.98;8.80;;;;;;;;;;10407554;28;20673;-89
2023/06/14 11:51:58;;;;;;;11.55;7.80;;;;;;;;;;10389152;28;20041;-88
2023/06/14 11:56:59;;;;;;;8.02;6.15;;;;;;;;;;10406943;28;20026;-90
2023/06/14 12:02:00;;;;;;;10.23;7.88;;;;;;;;;;10406179;28;20036;-88
2023/06/14 12:07:17;;;;;;;8.07;6.15;;;;;;;;;;10388482;28;20084;-87
2023/06/14 12:12:18;;;;;;;6.65;5.53;;;;;;;;;;10388059;28;20021;-88
2023/06/14 12:17:19;;;;;;;5.43;4.68;;;;;;;;;;10406059;28;20415;-88
2023/06/14 12:22:21;;;;;;;7.22;5.10;;;;;;;;;;10387952;28;20033;-88
2023/06/14 12:27:23;;;;;;;6.65;5.20;;;;;;;;;;10400410;28;20044;-89
2023/06/14 12:32:24;;;;;;;5.90;4.88;;;;;;;;;;10405320;28;20057;-88
2023/06/14 12:37:25;;;;;;;7.00;4.57;;;;;;;;;;10404947;28;20022;-91
2023/06/14 12:42:26;;;;;;;7.38;5.00;;;;;;;;;;10387322;28;20444;-88
2023/06/14 12:47:27;;;;;;;8.20;5.20;;;;;;;;;;10387216;28;20026;-87
2023/06/14 12:52:28;;;;;;;5.70;4.68;;;;;;;;;;10404807;28;20056;-89
2023/06/14 12:57:29;;;;;;;8.43;5.25;;;;;;;;;;10386439;28;20017;-89
2023/06/14 13:02:31;;;;;;;8.30;5.15;;;;;;;;;;10404034;28;20051;-87
2023/06/14 13:07:32;;;;;;;8.25;5.18;;;;;;;;;;10386517;28;20132;-90
2023/06/14 13:12:33;;;;;;;7.05;4.93;;;;;;;;;;10386690;28;20556;-88
2023/06/14 13:17:38;;;;;;;5.90;4.28;;;;;;;;;;10386034;28;20028;-87
2023/06/14 13:22:39;;;;;;;5.60;3.83;;;;;;;;;;10404405;28;20026;-90
2023/06/14 13:27:40;;;;;;;6.30;4.28;;;;;;;;;;10387629;28;20029;-89
2023/06/14 13:32:41;;;;;;;5.45;4.00;;;;;;;;;;10394953;28;20128;-86
2023/06/14 13:37:42;;;;;;;4.90;3.70;;;;;;;;;;10390526;28;20032;-87
2023/06/14 13:42:43;;;;;;;6.43;4.35;;;;;;;;;;10402925;28;20031;-83
2023/06/14 13:47:47;;;;;;;6.82;4.78;;;;;;;;;;10407306;28;20036;-84
2023/06/14 13:52:48;;;;;;;6.40;4.45;;;;;;;;;;10380680;28;20046;-84
2023/06/14 13:57:49;;;;;;;8.40;4.75;;;;;;;;;;10391712;28;20028;-85
2023/06/14 14:02:50;;;;;;;6.40;5.10;;;;;;;;;;10408625;28;20021;-85
2023/06/14 14:07:52;;;;;;;5.47;4.40;;;;;;;;;;10390328;28;20041;-86
2023/06/14 14:12:54;;;;;;;6.72;4.97;;;;;;;;;;10388787;28;20059;-86
2023/06/14 14:18:03;;;;;;;7.75;5.05;;;;;;;;;;10400787;28;20089;-86
2023/06/14 14:23:04;;;;;;;6.97;5.40;;;;;;;;;;10376532;28;20020;-86
2023/06/14 14:28:05;;;;;;;7.72;6.32;;;;;;;;;;10390915;28;20032;-87
2023/06/14 14:33:29;;;;;;;7.97;6.05;;;;;;;;;;10401431;28;20026;-86
2023/06/14 14:38:31;;;;;;;8.43;6.43;;;;;;;;;;10370342;28;20485;-86
2023/06/14 14:43:58;;;;;;;11.15;6.82;;;;;;;;;;10402120;28;20049;-87
2023/06/14 14:49:03;;;;;;;7.72;5.30;;;;;;;;;;10387606;28;20097;-86
2023/06/14 14:54:04;;;;;;;8.00;5.43;;;;;;;;;;10383890;28;20050;-88
2023/06/14 14:59:05;;;;;;;8.75;6.60;;;;;;;;;;10388026;28;20030;-87
2023/06/14 15:04:06;;;;;;;7.82;5.40;;;;;;;;;;10398259;28;20101;-83
2023/06/14 15:09:13;;;;;;;7.28;5.50;;;;;;;;;;10405632;28;20033;-89
2023/06/14 15:14:15;;;;;;;6.70;4.95;;;;;;;;;;10387326;28;20112;-87
2023/06/14 15:24:32;;;;;;;6.70;4.53;;;;;;;;;;12341328;22;20057;-86
2023/06/14 15:29:34;;;;;;;6.35;4.25;;;;;;;;;;10447452;28;20043;-87
2023/06/14 15:34:36;;;;;;;7.15;4.10;;;;;;;;;;10424619;28;20025;-86
2023/06/14 15:39:40;;;;;;;6.68;3.75;;;;;;;;;;10437893;28;20014;-86
2023/06/14 15:44:44;;;;;;;7.18;4.60;;;;;;;;;;10425132;28;20032;-86
2023/06/14 15:49:45;;;;;;;7.93;4.88;;;;;;;;;;10416153;28;20049;-85
2023/06/14 15:54:46;;;;;;;6.38;4.32;;;;;;;;;;10439589;28;20115;-86
2023/06/14 15:59:47;;;;;;;5.47;4.70;;;;;;;;;;10425881;28;20690;-86
2023/06/14 16:04:48;;;;;;;7.90;5.82;;;;;;;;;;10422366;28;20060;-86
2023/06/14 16:09:49;;;;;;;10.27;6.80;;;;;;;;;;10415882;28;20176;-88
2023/06/14 16:14:50;;;;;;;7.72;5.50;;;;;;;;;;10414243;28;20029;-86
2023/06/14 16:19:51;;;;;;;8.48;6.38;;;;;;;;;;10424777;28;20033;-86
2023/06/14 16:24:52;;;;;;;10.18;6.85;;;;;;;;;;10420567;28;20077;-85
2023/06/14 16:29:53;;;;;;;7.63;6.22;;;;;;;;;;10418660;28;20589;-86
2023/06/14 16:34:54;;;;;;;7.68;5.85;;;;;;;;;;10445540;28;20025;-86
2023/06/14 16:39:55;;;;;;;8.68;6.53;;;;;;;;;;10416196;28;20043;-87
2023/06/14 16:44:58;;;;;;;8.63;6.05;;;;;;;;;;10420510;28;20041;-86
2023/06/14 16:50:00;;;;;;;10.30;6.47;;;;;;;;;;10417220;28;20068;-85
2023/06/14 16:55:01;;;;;;;12.18;7.80;;;;;;;;;;10410674;28;20124;-87
2023/06/14 17:00:03;;;;;;;8.88;7.30;;;;;;;;;;10444314;28;20024;-87
2023/06/14 17:05:05;;;;;;;11.68;7.80;;;;;;;;;;10417609;28;20114;-86
2023/06/14 17:10:06;;;;;;;12.90;7.40;;;;;;;;;;10424326;28;20537;-87
2023/06/14 17:15:07;;;;;;;10.80;7.88;;;;;;;;;;10427776;28;20392;-89
2023/06/14 17:20:09;;;;;;;13.85;7.65;;;;;;;;;;10422079;28;20041;-87
2023/06/14 17:25:10;;;;;;;13.25;7.80;;;;;;;;;;10423175;28;20170;-86
2023/06/14 17:30:17;;;;;;;10.50;8.00;;;;;;;;;;10445433;28;20040;-90
2023/06/14 17:35:18;;;;;;;13.07;8.15;;;;;;;;;;10426055;28;20029;-87
2023/06/14 17:40:19;;;;;;;13.50;8.90;;;;;;;;;;10420490;28;20025;-86
2023/06/14 17:45:20;;;;;;;11.00;8.52;;;;;;;;;;10417411;28;20029;-87
2023/06/14 17:50:21;;;;;;;12.68;9.05;;;;;;;;;;10414426;28;20091;-86
2023/06/14 17:55:22;;;;;;;10.88;8.40;;;;;;;;;;10417878;28;20021;-87
2023/06/14 18:00:27;;;;;;;14.05;9.50;;;;;;;;;;10392303;28;20816;-86
2023/06/14 18:05:29;;;;;;;13.02;9.15;;;;;;;;;;10421957;28;20037;-90
2023/06/14 18:10:30;;;;;;;13.50;9.60;;;;;;;;;;10430929;28;20048;-87
2023/06/14 18:15:32;;;;;;;12.98;9.40;;;;;;;;;;10427124;28;20032;-89
2023/06/14 18:20:33;;;;;;;14.95;10.40;;;;;;;;;;10422481;28;20036;-85
2023/06/14 18:25:34;;;;;;;16.23;10.40;;;;;;;;;;10418485;28;20053;-86
2023/06/14 18:30:35;;;;;;;14.80;10.07;;;;;;;;;;10411755;28;20045;-86
2023/06/14 18:35:36;;;;;;;14.57;9.88;;;;;;;;;;10409161;28;20523;-85
2023/06/14 18:40:37;;;;;;;11.70;8.88;;;;;;;;;;10430979;28;20365;-85
2023/06/14 18:45:39;;;;;;;14.20;10.52;;;;;;;;;;10447758;28;20028;-87
2023/06/14 18:50:40;;;;;;;14.93;10.43;;;;;;;;;;10434336;28;20484;-86
2023/06/14 18:55:43;;;;;;;17.42;10.75;;;;;;;;;;10420730;28;20029;-87
2023/06/14 19:00:46;;;;;;;14.30;9.35;;;;;;;;;;10430693;28;20668;-86
2023/06/14 19:05:47;;;;;;;14.38;9.48;;;;;;;;;;10432731;28;20106;-85
2023/06/14 19:10:48;;;;;;;14.20;10.45;;;;;;;;;;10449987;28;20029;-85
2023/06/14 19:15:52;;;;;;;14.82;10.65;;;;;;;;;;10410157;28;20089;-85
2023/06/14 19:20:53;;;;;;;17.23;10.07;;;;;;;;;;10440945;28;20029;-85
2023/06/14 19:25:55;;;;;;;18.27;11.02;;;;;;;;;;10414436;28;20044;-86
2023/06/14 19:30:56;;;;;;;17.00;11.57;;;;;;;;;;10434872;28;20043;-86
2023/06/14 19:36:18;;;;;;;13.20;9.88;;;;;;;;;;10424894;28;20045;-85
2023/06/14 19:41:20;;;;;;;22.80;12.45;;;;;;;;;;10429510;28;20024;-88
2023/06/14 19:46:21;;;;;;;19.52;10.38;;;;;;;;;;10417723;28;20040;-87
2023/06/14 19:51:22;;;;;;;15.30;11.20;;;;;;;;;;10437037;28;20041;-86
2023/06/14 19:56:23;;;;;;;21.80;13.25;;;;;;;;;;10442536;28;20423;-87
2023/06/14 20:01:24;;;;;;;18.00;12.20;;;;;;;;;;10445462;28;20531;-88
2023/06/14 20:06:25;;;;;;;20.83;13.52;;;;;;;;;;10413889;28;20128;-87
2023/06/14 20:11:35;;;;;;;19.88;13.57;;;;;;;;;;10407454;28;20621;-88
2023/06/14 20:16:36;;;;;;;18.13;13.02;;;;;;;;;;10415944;28;20036;-88
2023/06/14 20:21:37;;;;;;;21.60;13.82;;;;;;;;;;10416680;28;20473;-91
2023/06/14 20:26:51;;;;;;;21.50;13.60;;;;;;;;;;10435916;28;20057;-88
2023/06/14 20:31:59;;;;;;;22.00;13.32;;;;;;;;;;10426894;28;20044;-89
2023/06/14 20:37:00;;;;;;;21.40;12.93;;;;;;;;;;10415340;28;20114;-88
2023/06/14 20:42:01;;;;;;;27.27;15.18;;;;;;;;;;10432459;28;20043;-87
2023/06/14 20:47:03;;;;;;;22.58;14.50;;;;;;;;;;10412811;28;20496;-92
2023/06/14 20:52:04;;;;;;;25.17;15.95;;;;;;;;;;10398848;28;20025;-89
2023/06/14 20:57:06;;;;;;;22.85;15.00;;;;;;;;;;10391303;28;20117;-90
2023/06/14 21:02:15;;;;;;;27.15;15.68;;;;;;;;;;10401959;28;20040;-90
2023/06/14 21:07:16;;;;;;;28.08;18.05;;;;;;;;;;10404717;28;20124;-89
2023/06/14 21:12:18;;;;;;;38.90;22.30;;;;;;;;;;10386137;28;20025;-91
2023/06/14 21:17:19;;;;;;;28.90;18.55;;;;;;;;;;10389765;28;20288;-90
2023/06/14 21:22:20;;;;;;;39.83;25.70;;;;;;;;;;10422492;28;20035;-90
2023/06/14 21:27:21;;;;;;;30.10;21.27;;;;;;;;;;10408127;28;20442;-90
2023/06/14 21:32:22;;;;;;;36.88;24.70;;;;;;;;;;10387226;28;20124;-89
2023/06/14 21:37:23;;;;;;;35.72;22.58;;;;;;;;;;10422144;28;20040;-90
2023/06/14 21:42:24;;;;;;;30.52;20.48;;;;;;;;;;10445607;28;20037;-87
2023/06/14 21:47:28;;;;;;;30.23;19.45;;;;;;;;;;10416283;28;20045;-90
2023/06/14 21:52:29;;;;;;;31.30;20.85;;;;;;;;;;10434566;28;20033;-89
2023/06/14 21:57:30;;;;;;;26.80;18.63;;;;;;;;;;10434654;28;20049;-90
2023/06/14 22:02:31;;;;;;;28.02;19.13;;;;;;;;;;10432706;28;20036;-89
2023/06/14 22:07:32;;;;;;;31.85;19.17;;;;;;;;;;10452239;28;20064;-90
2023/06/14 22:12:34;;;;;;;33.45;19.52;;;;;;;;;;10433080;28;20044;-91
2023/06/14 22:17:36;;;;;;;30.30;19.15;;;;;;;;;;10416933;28;20400;-90
2023/06/14 22:22:38;;;;;;;27.63;18.70;;;;;;;;;;10424800;28;20033;-88
2023/06/14 22:27:44;;;;;;;25.55;16.90;;;;;;;;;;10427723;28;20057;-89
2023/06/14 22:32:46;;;;;;;32.13;17.77;;;;;;;;;;10416275;28;20041;-89
2023/06/14 22:37:47;;;;;;;26.73;17.60;;;;;;;;;;10419352;28;20021;-90
2023/06/14 22:42:49;;;;;;;28.73;17.05;;;;;;;;;;10432824;28;20039;-89
2023/06/14 22:47:50;;;;;;;34.38;18.83;;;;;;;;;;10422781;28;20041;-88
2023/06/14 22:52:52;;;;;;;31.20;19.80;;;;;;;;;;10431989;28;20025;-91
2023/06/14 22:57:53;;;;;;;25.50;17.58;;;;;;;;;;10432039;28;20036;-90
2023/06/14 23:02:54;;;;;;;25.50;16.02;;;;;;;;;;10411634;28;20503;-89
2023/06/14 23:07:55;;;;;;;25.25;14.98;;;;;;;;;;10432785;28;20037;-89
2023/06/14 23:12:58;;;;;;;27.33;16.75;;;;;;;;;;10431452;28;20045;-88
2023/06/14 23:17:59;;;;;;;23.05;15.25;;;;;;;;;;10427831;28;20033;-88
2023/06/14 23:23:03;;;;;;;22.38;14.85;;;;;;;;;;10430906;28;20109;-89
2023/06/14 23:28:07;;;;;;;28.35;16.13;;;;;;;;;;10431252;28;20063;-88
2023/06/14 23:33:08;;;;;;;28.58;16.95;;;;;;;;;;10427600;28;20079;-89
2023/06/14 23:38:12;;;;;;;26.73;14.18;;;;;;;;;;10430549;28;20103;-89
2023/06/14 23:43:14;;;;;;;27.25;15.57;;;;;;;;;;10420434;28;20466;-91
2023/06/14 23:48:15;;;;;;;22.13;13.75;;;;;;;;;;10418751;28;20048;-89
2023/06/14 23:53:17;;;;;;;27.08;14.75;;;;;;;;;;10421526;28;20037;-89
2023/06/14 23:58:18;;;;;;;21.17;13.75;;;;;;;;;;10430313;28;20029;-88
